Flight Track Log - Related Links

Times and Time Zones

All times are in EDT time to prevent confusion due to time zone crossing. See the CTL13 flight status page for this flight to view local times or setup timezone preferences in your user account.

Time Position Orientation Groundspeed Altitude Reporting Facility
EDT Latitude Longitude Course Direction KTS MPH feet Rate Location/Type
Wed 08:14:04 PM 39.9167 -86.2833 360° North 148 170 2,600  Level Indianapolis TRACON
Wed 08:14:58 PM 39.9500 -86.3000 339° North 156 180 3,200 692 Climbing Indianapolis TRACON
Wed 08:15:22 PM 39.9658 -86.3083 338° Northwest 152 175 3,500 628 Climbing Chicago Center
Wed 08:16:24 PM 40.0072 -86.3217 346° North 154 177 4,100 581 Climbing Chicago Center
Wed 08:17:26 PM 40.0506 -86.3306 351° North 155 178 4,700 532 Climbing Chicago Center
Wed 08:18:28 PM 40.0950 -86.3406 350° North 158 182 5,200 484 Climbing Chicago Center
Wed 08:19:30 PM 40.1392 -86.3517 349° North 160 184 5,700 387 Climbing Chicago Center
Wed 08:20:32 PM 40.1844 -86.3631 349° North 162 186 6,000 145 Climbing Chicago Center
Wed 08:21:34 PM 40.2425 -86.3772 349° North 177 204 6,000  Level Chicago Center
Wed 08:21:54 PM 40.2600 -86.3811 350° North 182 209 6,000  Level Chicago Center
Wed 08:22:36 PM 40.2919 -86.3875 351° North 179 206 6,000  Level Chicago Center
Wed 08:22:54 PM 40.3075 -86.3922 347° North 181 208 6,000  Level Chicago Center
Wed 08:23:38 PM 40.3417 -86.3997 351° North 180 207 6,000 39 Level Chicago Center
Wed 08:25:26 PM 40.4336 -86.4233 349° North 183 211 6,100  Climbing Indianapolis Center
Wed 08:25:42 PM 40.4414 -86.4261 345° North 182 209 6,000 -77 Descending Chicago Center
Wed 08:26:44 PM 40.4922 -86.4394 349° North 186 214 6,000  Level Chicago Center
Wed 08:27:46 PM 40.5508 -86.4536 350° North 183 211 6,000  Level Chicago Center
Wed 08:28:48 PM 40.6017 -86.4672 349° North 185 213 6,000  Level Chicago Center
Wed 08:29:50 PM 40.6525 -86.4806 349° North 185 213 6,000  Level Chicago Center
Wed 08:30:52 PM 40.7047 -86.4922 350° North 186 214 6,000  Level Chicago Center
Wed 08:31:54 PM 40.7542 -86.5047 349° North 183 211 6,000  Level Chicago Center
Wed 08:32:57 PM 40.8039 -86.5183 348° North 184 212 6,000  Level Chicago Center
Wed 08:33:59 PM 40.8544 -86.5297 350° North 185 213 6,000  Level Chicago Center
Wed 08:35:01 PM 40.9144 -86.5467 348° North 186 214 6,000  Level Chicago Center
Wed 08:36:03 PM 40.9642 -86.5589 349° North 183 211 6,000  Level Chicago Center
Wed 08:37:05 PM 41.0103 -86.5717 348° North 183 211 6,000  Level Chicago Center
Wed 08:38:07 PM 41.0606 -86.5881 346° North 185 213 6,000  Level Chicago Center
Wed 08:39:09 PM 41.1214 -86.6006 351° North 183 211 6,000  Level Chicago Center
Wed 08:40:11 PM 41.1708 -86.6106 351° North 180 207 6,000 48 Level Chicago Center
Wed 08:41:13 PM 41.2208 -86.6228 350° North 181 208 6,100 48 Climbing Chicago Center
Wed 08:42:15 PM 41.2508 -86.6769 306° West 179 206 6,100  Level Chicago Center
Wed 08:43:17 PM 41.2831 -86.7331 307° West 184 212 6,100  Level Chicago Center
Wed 08:44:19 PM 41.3131 -86.7892 305° West 185 213 6,100 -48 Level Chicago Center
Wed 08:45:22 PM 41.3500 -86.8544 307° West 185 213 6,000 -48 Descending Chicago Center
Wed 08:46:24 PM 41.3694 -86.9164 293° West 185 213 6,000  Level Chicago Center
Wed 08:47:26 PM 41.3836 -86.9800 287° West 183 211 6,000  Level Chicago Center
Wed 08:48:28 PM 41.3969 -87.0428 286° West 181 208 6,000 -48 Level Chicago Center
Wed 08:49:30 PM 41.4100 -87.1033 286° West 177 204 5,900  Descending Chicago Center
Wed 08:50:04 PM 41.4167 -87.1500 281° West 177 204 6,000 64 Climbing Chicago TRACON
Wed 08:51:04 PM 41.4333 -87.2167 288° West 178 205 6,000 -250 Level Chicago TRACON
Wed 08:52:04 PM 41.4500 -87.2833 288° West 189 217 5,500 -700 Descending Chicago TRACON
Wed 08:53:04 PM 41.4667 -87.3500 288° West 206 237 4,600 -830 Descending Chicago TRACON
Wed 08:53:38 PM 41.4714 -87.3808 282° West 200 230 4,200 -438 Descending Chicago Center
Wed 08:54:40 PM 41.5064 -87.4397 308° West 203 234 3,900 -145 Descending Chicago Center
Wed 08:55:42 PM 41.5561 -87.4894 323° Northwest 195 224 3,900 -323 Level Chicago Center
Wed 08:57:46 PM 41.6483 -87.5678 328° Northwest 196 226 2,900 -452 Descending Chicago Center
Wed 08:58:48 PM 41.6972 -87.6069 329° Northwest 202 232 2,500 -472 Descending Chicago Center
Wed 08:59:53 PM 41.7583 -87.6428 336° Northwest 203 234 1,900 -425 Descending Chicago Center
Wed 09:00:55 PM 41.8006 -87.6833 324° Northwest 199 229 1,600 -290 Descending Chicago Center
Wed 09:01:57 PM 41.8092 -87.7372 282° West 172 198 1,300 -290 Descending Chicago Center
Wed 09:04:00 PM 41.7833 -87.7500 334° Northwest  Level FlightAware Approximate

Login

Don't have an account? Register now (free) for customized features, flight alerts, and more!